Time;durP1;ratioP1;P1;durP2;ratioP2;P2;SDS_P1;SDS_P2;PMS_P1;PMS_P2;Temp;Humidity;BMP_temperature;BMP_pressure;BME280_temperature;BME280_humidity;BME280_pressure;Samples;Min_cycle;Max_cycle;Signal;HPM_P1;HPM_P2
2023/06/03 00:01:34;;;;;;;4.72;2.35;;;;;;;21.61;46.31;99455.53;4476625;31;32661;-69
2023/06/03 00:04:04;;;;;;;3.95;2.25;;;;;;;21.55;46.45;99454.44;4475182;32;33314;-69
2023/06/03 00:06:31;;;;;;;4.68;3.22;;;;;;;21.59;46.53;99453.00;4475261;32;34627;-66
2023/06/03 00:08:59;;;;;;;7.10;3.70;;;;;;;21.58;47.10;99461.38;4482252;31;35460;-66
2023/06/03 00:11:27;;;;;;;4.60;3.03;;;;;;;21.56;47.59;99464.28;4478148;32;33755;-67
2023/06/03 00:13:54;;;;;;;8.52;3.10;;;;;;;21.63;47.10;99464.34;4473463;31;33260;-67
2023/06/03 00:16:22;;;;;;;4.50;2.70;;;;;;;21.71;47.01;99468.84;4478257;31;34520;-67
2023/06/03 00:18:50;;;;;;;6.03;2.95;;;;;;;21.68;47.53;99477.41;4480113;32;34110;-68
2023/06/03 00:21:18;;;;;;;10.00;3.15;;;;;;;21.53;47.75;99470.09;4479147;31;33539;-67
2023/06/03 00:23:48;;;;;;;9.13;2.20;;;;;;;21.68;47.47;99471.94;4479413;31;34453;-69
2023/06/03 00:26:16;;;;;;;5.82;3.05;;;;;;;21.73;47.31;99480.38;4479404;31;32497;-67
2023/06/03 00:28:44;;;;;;;4.93;2.95;;;;;;;21.58;47.16;99483.16;4480488;32;34767;-68
2023/06/03 00:31:12;;;;;;;11.52;3.85;;;;;;;21.61;46.94;99475.44;4476281;31;33538;-67
2023/06/03 00:33:40;;;;;;;7.70;3.70;;;;;;;21.63;47.03;99477.97;4480092;32;33269;-67
2023/06/03 00:36:07;;;;;;;5.97;3.22;;;;;;;21.56;47.58;99487.94;4475708;31;34708;-70
2023/06/03 00:38:35;;;;;;;3.87;2.95;;;;;;;21.61;47.36;99480.06;4477252;31;35015;-68
2023/06/03 00:41:03;;;;;;;5.60;2.60;;;;;;;21.57;47.52;99481.44;4478330;32;33199;-67
2023/06/03 00:43:30;;;;;;;7.00;3.00;;;;;;;21.53;47.55;99489.16;4472704;31;33185;-67
2023/06/03 00:45:58;;;;;;;4.93;2.65;;;;;;;21.48;47.64;99491.63;4470460;31;34733;-69
2023/06/03 00:48:26;;;;;;;5.57;2.58;;;;;;;21.48;47.64;99491.63;4477836;32;34798;-66
2023/06/03 00:50:53;;;;;;;7.55;3.72;;;;;;;21.46;47.78;99490.97;4477005;31;33982;-66
2023/06/03 00:53:21;;;;;;;4.95;2.65;;;;;;;21.33;48.11;99490.78;4481254;31;32871;-69
2023/06/03 00:55:49;;;;;;;5.95;2.42;;;;;;;21.32;48.01;99491.81;4475577;32;33273;-68
2023/06/03 00:58:16;;;;;;;4.62;2.83;;;;;;;21.31;47.98;99490.13;4476617;31;32656;-67
2023/06/03 01:00:44;;;;;;;7.32;3.67;;;;;;;21.33;48.35;99493.50;4481147;32;34229;-66
2023/06/03 01:03:14;;;;;;;6.00;2.85;;;;;;;21.26;48.50;99493.41;4480040;32;33526;-67
2023/06/03 01:05:45;;;;;;;5.22;3.03;;;;;;;21.15;48.54;99496.59;4477214;31;33650;-67
2023/06/03 01:08:31;;;;;;;6.82;3.87;;;;;;;21.20;48.23;99493.34;4479417;32;34493;-69
2023/06/03 01:10:58;;;;;;;;;;;;;;;21.23;48.45;99492.97;4479174;32;34651;-69
2023/06/03 01:13:29;;;;;;;5.15;2.80;;;;;;;21.17;48.44;99492.66;4476414;31;31599;-66
2023/06/03 01:16:04;;;;;;;6.55;3.28;;;;;;;21.06;48.83;99486.84;4479742;31;34900;-67
2023/06/03 01:18:35;;;;;;;8.43;2.67;;;;;;;21.06;48.96;99485.00;4478643;31;35229;-68
2023/06/03 01:21:03;;;;;;;4.87;2.95;;;;;;;21.00;49.13;99496.63;4479141;31;33334;-68
2023/06/03 01:23:34;;;;;;;10.00;3.60;;;;;;;20.88;49.04;99500.84;4479634;32;33193;-66
2023/06/03 01:26:06;;;;;;;5.22;3.25;;;;;;;20.78;48.97;99501.12;4476541;31;34797;-68
2023/06/03 01:28:33;;;;;;;8.23;3.30;;;;;;;20.84;48.66;99494.09;4472805;32;34934;-66
2023/06/03 01:31:03;;;;;;;6.60;3.25;;;;;;;20.78;48.74;99500.28;4479481;31;34600;-68
2023/06/03 01:33:32;;;;;;;7.97;3.10;;;;;;;20.65;48.83;99496.34;4482414;32;34250;-65
2023/06/03 01:36:02;;;;;;;3.33;2.40;;;;;;;20.61;49.08;99499.59;4478207;32;34963;-65
2023/06/03 01:38:29;;;;;;;5.62;2.70;;;;;;;20.60;49.20;99504.19;4479557;32;34026;-68
2023/06/03 01:40:59;;;;;;;4.50;2.95;;;;;;;20.65;49.11;99507.22;4478140;31;32595;-68
2023/06/03 01:43:26;;;;;;;4.28;2.42;;;;;;;20.65;49.04;99504.50;4477824;31;33431;-67
2023/06/03 01:45:54;;;;;;;4.78;2.65;;;;;;;20.57;49.35;99501.84;4475372;32;32265;-68
2023/06/03 01:48:22;;;;;;;4.75;2.58;;;;;;;20.55;49.27;99498.47;4477375;32;34993;-67
2023/06/03 01:50:50;;;;;;;6.85;3.22;;;;;;;20.42;49.63;99495.53;4480325;32;32463;-68
2023/06/03 01:53:19;;;;;;;6.90;3.00;;;;;;;20.37;49.94;99503.38;4480972;31;34323;-69
2023/06/03 01:55:47;;;;;;;4.95;3.12;;;;;;;20.41;49.68;99508.25;4471860;31;32568;-69
2023/06/03 01:58:15;;;;;;;4.22;2.50;;;;;;;20.33;49.96;99519.19;4476718;32;34098;-68
2023/06/03 02:00:42;;;;;;;6.18;2.97;;;;;;;20.08;50.42;99517.72;4479920;31;33457;-67
2023/06/03 02:03:10;;;;;;;4.62;3.08;;;;;;;20.15;50.20;99515.94;4479591;32;33465;-67
2023/06/03 02:05:38;;;;;;;23.50;3.22;;;;;;;20.23;49.98;99518.63;4472254;32;33977;-67
2023/06/03 02:08:07;;;;;;;5.32;3.40;;;;;;;20.33;49.93;99532.78;4469526;31;33951;-67
2023/06/03 02:10:35;;;;;;;3.10;1.98;;;;;;;20.43;49.53;99525.22;4473655;31;33808;-69
2023/06/03 02:13:04;;;;;;;18.30;2.62;;;;;;;20.44;49.79;99531.50;4478120;32;35175;-68
2023/06/03 02:15:32;;;;;;;11.02;4.12;;;;;;;20.47;49.63;99529.25;4477828;31;33757;-68
2023/06/03 02:17:59;;;;;;;6.85;3.55;;;;;;;20.51;49.38;99531.59;4475773;32;35053;-68
2023/06/03 02:20:27;;;;;;;6.25;3.20;;;;;;;20.43;49.34;99533.38;4478994;31;34927;-68
2023/06/03 02:22:57;;;;;;;6.35;3.03;;;;;;;20.46;48.74;99535.72;4472443;31;33227;-69
2023/06/03 02:25:24;;;;;;;9.75;3.12;;;;;;;20.48;48.08;99536.41;4473667;31;33793;-67
2023/06/03 02:27:54;;;;;;;7.45;2.92;;;;;;;20.50;47.67;99536.19;4476574;31;32628;-68
2023/06/03 02:30:22;;;;;;;7.70;3.28;;;;;;;20.47;47.66;99547.44;4479613;32;34459;-67
2023/06/03 02:32:50;;;;;;;16.45;3.75;;;;;;;20.47;47.06;99536.56;4474763;31;34085;-67
2023/06/03 02:35:17;;;;;;;5.47;2.10;;;;;;;20.50;46.65;99538.09;4479759;32;32624;-69
2023/06/03 02:37:45;;;;;;;5.82;2.25;;;;;;;20.53;46.31;99543.19;4475151;31;33980;-66
2023/06/03 02:40:13;;;;;;;4.28;2.42;;;;;;;20.62;45.31;99544.81;4476969;31;33456;-67
2023/06/03 02:42:41;;;;;;;3.42;1.75;;;;;;;20.64;45.54;99543.59;4479236;31;33209;-67
2023/06/03 02:45:09;;;;;;;6.20;2.83;;;;;;;20.69;46.29;99548.47;4479745;32;35072;-65
2023/06/03 02:47:37;;;;;;;5.80;2.10;;;;;;;20.72;45.96;99548.09;4474192;31;33981;-67
2023/06/03 02:50:05;;;;;;;5.03;3.00;;;;;;;20.73;46.00;99555.22;4474694;31;33512;-65
2023/06/03 02:52:33;;;;;;;5.80;2.83;;;;;;;20.75;46.45;99557.78;4481411;32;33217;-65
2023/06/03 02:55:01;;;;;;;7.87;2.80;;;;;;;20.67;45.74;99553.22;4479821;31;35005;-67
2023/06/03 02:57:29;;;;;;;4.22;2.42;;;;;;;20.66;45.52;99557.00;4481329;32;34001;-65
2023/06/03 02:59:57;;;;;;;4.37;1.75;;;;;;;20.52;45.19;99558.66;4475564;31;33768;-67
2023/06/03 03:02:26;;;;;;;5.07;2.78;;;;;;;20.54;45.61;99561.19;4480517;32;34197;-67
2023/06/03 03:04:53;;;;;;;8.23;2.30;;;;;;;20.51;45.99;99564.22;4474428;31;33888;-69
2023/06/03 03:07:26;;;;;;;4.15;2.37;;;;;;;20.44;46.39;99573.13;4478238;31;34005;-69
2023/06/03 03:09:54;;;;;;;5.03;2.67;;;;;;;20.30;46.63;99568.47;4479483;31;35078;-68
2023/06/03 03:12:22;;;;;;;3.97;2.37;;;;;;;20.08;47.34;99580.19;4475314;31;33113;-68
2023/06/03 03:14:50;;;;;;;4.20;2.50;;;;;;;19.89;47.78;99573.34;4477683;31;33628;-68
2023/06/03 03:17:18;;;;;;;3.20;1.90;;;;;;;19.96;47.83;99582.47;4478700;31;31973;-69
2023/06/03 03:19:45;;;;;;;3.55;1.85;;;;;;;20.01;47.81;99593.66;4480365;32;33616;-67
2023/06/03 03:22:13;;;;;;;3.12;1.85;;;;;;;20.05;47.82;99586.00;4472697;32;33525;-70
2023/06/03 03:24:42;;;;;;;6.50;2.58;;;;;;;20.11;47.80;99596.13;4480627;32;33666;-65
2023/06/03 03:27:10;;;;;;;11.00;2.40;;;;;;;20.15;48.34;99592.88;4477060;31;33753;-68
2023/06/03 03:29:44;;;;;;;5.20;2.45;;;;;;;20.15;48.48;99606.44;4481837;32;34857;-67
2023/06/03 03:32:12;;;;;;;5.50;2.80;;;;;;;20.15;48.31;99603.72;4479139;31;32929;-72
2023/06/03 03:34:41;;;;;;;13.10;3.17;;;;;;;20.16;48.46;99607.28;4479048;32;33596;-73
2023/06/03 03:37:11;;;;;;;13.18;3.22;;;;;;;20.24;48.35;99618.97;4477691;31;33894;-71
2023/06/03 03:39:40;;;;;;;5.18;2.65;;;;;;;20.20;48.42;99617.63;4470400;32;33817;-71
2023/06/03 03:42:08;;;;;;;5.97;3.50;;;;;;;20.23;48.82;99619.16;4477437;32;32142;-71
2023/06/03 03:44:36;;;;;;;4.05;2.17;;;;;;;19.92;49.91;99625.44;4479155;31;33812;-73
2023/06/03 03:47:04;;;;;;;4.62;2.92;;;;;;;20.16;49.61;99626.31;4476975;32;32202;-71
2023/06/03 03:49:34;;;;;;;7.78;3.28;;;;;;;20.37;48.80;99633.84;4478982;31;33754;-71
2023/06/03 03:52:04;;;;;;;4.32;2.35;;;;;;;20.54;48.50;99631.88;4476415;32;34423;-71
2023/06/03 03:54:35;;;;;;;5.22;1.95;;;;;;;20.54;47.95;99638.16;4472718;31;33085;-70
2023/06/03 03:57:09;;;;;;;3.42;2.20;;;;;;;20.61;47.87;99638.25;4474639;31;34063;-72
2023/06/03 03:59:37;;;;;;;6.25;2.85;;;;;;;20.43;48.13;99638.56;4474160;31;32529;-70
2023/06/03 04:02:05;;;;;;;11.48;3.53;;;;;;;20.48;47.33;99641.56;4476213;32;33294;-72
2023/06/03 04:04:41;;;;;;;5.15;3.10;;;;;;;20.52;47.09;99642.09;4477741;31;33949;-68
2023/06/03 04:07:08;;;;;;;;;;;;;;;20.27;47.46;99642.22;4473665;31;32996;-69
2023/06/03 04:09:37;;;;;;;8.23;2.95;;;;;;;20.42;47.33;99648.59;4478135;32;34484;-69
2023/06/03 04:12:16;;;;;;;2.53;1.48;;;;;;;20.38;47.78;99640.94;4476254;31;31685;-69
2023/06/03 04:14:49;;;;;;;6.28;2.37;;;;;;;20.42;47.92;99648.59;4476898;32;35416;-70
2023/06/03 04:17:20;;;;;;;4.75;2.17;;;;;;;20.41;47.92;99655.03;4478347;31;35040;-70
2023/06/03 04:19:48;;;;;;;3.03;2.10;;;;;;;20.50;47.76;99657.69;4474211;31;33485;-70
2023/06/03 04:22:21;;;;;;;14.70;2.25;;;;;;;20.57;47.55;99656.81;4476996;31;32929;-69
2023/06/03 04:24:59;;;;;;;13.80;3.12;;;;;;;20.53;47.58;99657.37;4471829;32;33653;-70
2023/06/03 04:27:27;;;;;;;4.68;2.83;;;;;;;20.72;47.32;99661.47;4478415;31;33914;-68
2023/06/03 04:29:56;;;;;;;7.68;3.30;;;;;;;20.72;47.46;99656.88;4479475;31;35017;-69
2023/06/03 04:32:24;;;;;;;5.32;2.25;;;;;;;20.55;48.64;99658.87;4478792;31;33023;-69
2023/06/03 04:34:53;;;;;;;4.75;2.58;;;;;;;20.86;48.22;99661.50;4481223;32;35155;-67
2023/06/03 04:37:22;;;;;;;6.57;3.22;;;;;;;20.99;47.73;99657.31;4482988;32;34052;-68
2023/06/03 04:39:51;;;;;;;9.85;3.37;;;;;;;21.07;47.24;99651.81;4476800;31;34624;-70
2023/06/03 04:42:19;;;;;;;5.10;2.37;;;;;;;21.04;47.24;99650.31;4481937;32;33136;-70
2023/06/03 04:44:48;;;;;;;7.22;3.62;;;;;;;21.14;46.96;99656.31;4478660;31;33900;-69
2023/06/03 04:47:17;;;;;;;7.00;2.72;;;;;;;21.20;46.79;99664.78;4477369;32;35896;-68
2023/06/03 04:49:47;;;;;;;3.70;2.22;;;;;;;21.23;46.93;99662.53;4480836;31;33908;-68
2023/06/03 04:52:15;;;;;;;6.37;2.50;;;;;;;21.26;46.44;99659.44;4480253;31;34834;-68
2023/06/03 04:54:43;;;;;;;6.97;3.08;;;;;;;21.29;45.87;99666.41;4480081;31;33357;-68
2023/06/03 04:57:11;;;;;;;5.10;2.37;;;;;;;21.42;45.26;99674.81;4480807;31;33988;-70
2023/06/03 04:59:40;;;;;;;5.15;2.92;;;;;;;21.53;44.12;99670.75;4476617;31;33700;-68
2023/06/03 05:02:08;;;;;;;5.05;3.35;;;;;;;21.54;43.16;99673.31;4479519;32;34117;-68
2023/06/03 05:04:37;;;;;;;5.45;2.92;;;;;;;21.59;43.37;99670.00;4481671;32;33672;-68
2023/06/03 05:07:05;;;;;;;3.87;2.47;;;;;;;21.58;44.16;99671.06;4482055;31;33829;-67
2023/06/03 05:09:33;;;;;;;5.87;2.50;;;;;;;21.65;44.34;99676.59;4483193;32;33692;-69
2023/06/03 05:12:00;;;;;;;6.47;3.22;;;;;;;21.72;43.83;99675.66;4473846;31;34172;-68
2023/06/03 05:14:29;;;;;;;4.50;2.25;;;;;;;21.76;43.08;99676.94;4477728;31;33994;-68
2023/06/03 05:16:57;;;;;;;7.22;3.92;;;;;;;21.85;42.74;99681.28;4469999;32;33902;-69
2023/06/03 05:19:24;;;;;;;9.02;2.58;;;;;;;21.91;42.79;99673.37;4479260;31;34676;-68
2023/06/03 05:21:52;;;;;;;6.78;3.08;;;;;;;21.93;41.19;99674.88;4478639;31;33182;-68
2023/06/03 05:24:20;;;;;;;5.55;3.03;;;;;;;21.84;41.58;99673.31;4479780;31;33991;-71
2023/06/03 05:26:48;;;;;;;6.40;3.50;;;;;;;21.90;41.95;99674.44;4480032;31;33957;-68
2023/06/03 05:29:16;;;;;;;5.75;3.00;;;;;;;21.83;41.58;99685.25;4479424;31;34730;-68
2023/06/03 05:31:44;;;;;;;8.18;3.50;;;;;;;22.02;41.12;99684.66;4480200;32;33583;-70
2023/06/03 05:34:12;;;;;;;5.80;3.05;;;;;;;21.95;41.11;99686.44;4479437;31;33729;-69
2023/06/03 05:36:40;;;;;;;4.85;2.65;;;;;;;22.03;40.90;99690.94;4478731;31;34117;-70
2023/06/03 05:39:08;;;;;;;13.18;3.78;;;;;;;21.94;40.84;99695.66;4479567;31;33496;-72
2023/06/03 05:41:35;;;;;;;6.30;2.42;;;;;;;21.49;41.42;99697.53;4477431;31;33434;-67
2023/06/03 05:44:05;;;;;;;9.95;2.90;;;;;;;21.75;41.20;99693.50;4482565;31;33671;-72
2023/06/03 05:46:33;;;;;;;6.07;3.17;;;;;;;21.91;41.45;99693.28;4483306;31;33872;-68
2023/06/03 05:49:02;;;;;;;4.55;2.65;;;;;;;22.15;41.56;99688.56;4480813;31;33598;-69
2023/06/03 05:51:30;;;;;;;4.80;2.28;;;;;;;21.97;41.37;99695.28;4478880;32;33181;-68
2023/06/03 05:53:59;;;;;;;8.45;2.40;;;;;;;22.22;40.09;99693.09;4481104;32;34238;-68
2023/06/03 05:56:27;;;;;;;4.37;2.45;;;;;;;22.12;40.13;99697.13;4483767;31;33825;-70
2023/06/03 05:58:58;;;;;;;4.37;3.10;;;;;;;22.06;41.51;99699.59;4479122;31;33792;-71
2023/06/03 06:01:26;;;;;;;6.53;2.83;;;;;;;22.36;40.48;99702.28;4478977;31;34170;-68
2023/06/03 06:03:54;;;;;;;3.22;1.73;;;;;;;21.98;41.51;99707.84;4482772;31;33482;-68
2023/06/03 06:06:26;;;;;;;5.50;2.92;;;;;;;22.28;41.64;99702.41;4483744;32;32606;-69
2023/06/03 06:08:54;;;;;;;5.45;3.28;;;;;;;22.36;41.90;99704.16;4480429;31;33549;-69
2023/06/03 06:11:22;;;;;;;8.15;3.28;;;;;;;22.52;39.27;99701.19;4477156;32;36004;-69
2023/06/03 06:13:50;;;;;;;6.60;2.85;;;;;;;22.53;39.55;99706.44;4479156;32;34802;-69
2023/06/03 06:16:18;;;;;;;8.88;3.12;;;;;;;22.64;39.35;99702.38;4477372;31;34837;-69
2023/06/03 06:18:45;;;;;;;5.53;3.17;;;;;;;22.28;39.26;99710.59;4482230;31;34000;-67
2023/06/03 06:21:15;;;;;;;7.97;3.87;;;;;;;22.33;39.62;99708.09;4482471;31;33030;-70
2023/06/03 06:23:44;;;;;;;10.25;3.97;;;;;;;22.51;39.67;99705.81;4480949;31;35122;-68
2023/06/03 06:26:14;;;;;;;7.85;3.42;;;;;;;22.69;39.60;99709.97;4482904;32;35460;-70
2023/06/03 06:28:44;;;;;;;8.98;3.95;;;;;;;22.58;39.45;99715.94;4479414;31;33938;-71
2023/06/03 06:31:15;;;;;;;9.05;3.42;;;;;;;22.36;41.07;99710.47;4475556;31;33215;-71
2023/06/03 06:33:47;;;;;;;7.20;3.80;;;;;;;22.61;39.95;99719.13;4481619;32;34855;-70
2023/06/03 06:36:30;;;;;;;12.88;3.45;;;;;;;21.94;41.12;99725.63;4479560;32;34757;-72
2023/06/03 06:38:59;;;;;;;7.35;4.15;;;;;;;22.34;40.52;99726.16;4482520;32;33999;-71
2023/06/03 06:41:27;;;;;;;7.80;3.47;;;;;;;22.39;40.91;99726.44;4480946;31;33172;-68
2023/06/03 06:43:55;;;;;;;7.12;2.97;;;;;;;22.71;40.07;99727.00;4478679;31;33837;-68
2023/06/03 06:46:24;;;;;;;4.30;2.55;;;;;;;22.77;39.96;99728.97;4477950;32;35233;-67
2023/06/03 06:48:52;;;;;;;7.90;3.17;;;;;;;22.73;40.78;99722.22;4477904;32;34620;-71
2023/06/03 06:51:20;;;;;;;4.43;2.78;;;;;;;22.87;40.06;99732.19;4476282;31;33579;-72
2023/06/03 06:53:48;;;;;;;7.80;2.97;;;;;;;22.46;40.79;99729.22;4474217;32;35051;-71
2023/06/03 06:56:17;;;;;;;8.32;4.53;;;;;;;22.87;39.65;99731.38;4475698;32;33600;-69
2023/06/03 06:58:45;;;;;;;7.18;3.45;;;;;;;22.91;40.04;99733.50;4475005;31;34552;-70
2023/06/03 07:01:14;;;;;;;9.20;3.12;;;;;;;22.63;39.99;99738.03;4474024;31;32942;-70
2023/06/03 07:03:42;;;;;;;6.75;3.33;;;;;;;22.74;40.11;99734.81;4477740;32;33993;-70
2023/06/03 07:06:10;;;;;;;7.87;4.00;;;;;;;22.93;40.65;99738.78;4478945;32;33671;-70
2023/06/03 07:08:38;;;;;;;10.82;3.70;;;;;;;22.95;39.68;99740.31;4475146;31;32510;-70
2023/06/03 07:11:07;;;;;;;8.88;2.95;;;;;;;22.92;39.66;99740.66;4481134;32;33513;-71
2023/06/03 07:13:36;;;;;;;7.07;3.58;;;;;;;22.79;41.33;99745.97;4482420;32;34201;-69
2023/06/03 07:16:04;;;;;;;5.25;3.10;;;;;;;22.32;42.50;99740.00;4479882;32;32551;-69
2023/06/03 07:18:33;;;;;;;7.18;3.75;;;;;;;22.74;41.06;99751.16;4481776;32;33746;-71
2023/06/03 07:21:00;;;;;;;9.45;4.12;;;;;;;22.41;41.31;99746.19;4477644;31;33577;-72
2023/06/03 07:23:28;;;;;;;4.20;2.62;;;;;;;22.88;40.09;99741.22;4478053;31;34537;-72
2023/06/03 07:25:56;;;;;;;5.90;2.75;;;;;;;22.71;39.38;99744.22;4482241;32;34893;-71
2023/06/03 07:28:29;;;;;;;8.07;4.28;;;;;;;22.87;39.38;99747.75;4481270;31;34862;-69
2023/06/03 07:31:00;;;;;;;5.15;3.20;;;;;;;23.08;40.31;99752.38;4478091;31;32024;-69
2023/06/03 07:33:30;;;;;;;4.82;2.60;;;;;;;22.63;41.09;99758.00;4478694;31;32412;-70
2023/06/03 07:36:01;;;;;;;4.30;2.85;;;;;;;22.93;40.12;99752.41;4479747;32;33985;-69
2023/06/03 07:38:38;;;;;;;5.95;3.08;;;;;;;22.99;40.34;99757.97;4481319;32;33940;-70
2023/06/03 07:41:07;;;;;;;8.27;4.18;;;;;;;23.06;39.01;99765.37;4480002;31;32902;-70
2023/06/03 07:43:38;;;;;;;7.53;3.87;;;;;;;23.12;39.50;99764.59;4476159;31;34798;-72
2023/06/03 07:46:06;;;;;;;9.70;3.58;;;;;;;22.50;39.77;99776.91;4475617;32;32834;-69
2023/06/03 07:48:38;;;;;;;7.62;4.40;;;;;;;22.91;39.44;99759.94;4477307;31;33656;-69
2023/06/03 07:51:50;;;;;;;6.03;3.12;;;;;;;23.04;39.78;99762.84;4512878;31;144176;-72
2023/06/03 07:54:18;;;;;;;6.47;3.35;;;;;;;22.42;41.34;99764.22;4508026;31;33163;-71
2023/06/03 07:56:47;;;;;;;6.75;3.50;;;;;;;22.67;40.90;99769.34;4498547;31;33694;-72
2023/06/03 07:59:15;;;;;;;5.97;2.85;;;;;;;22.83;40.70;99768.28;4485447;32;34956;-71
2023/06/03 08:01:43;;;;;;;5.22;3.05;;;;;;;22.87;40.85;99773.13;4489448;31;34304;-73
2023/06/03 08:04:19;;;;;;;10.45;4.22;;;;;;;22.98;40.46;99772.63;4490925;32;33306;-70
2023/06/03 08:06:49;;;;;;;8.40;3.65;;;;;;;22.96;39.33;99777.47;4490948;32;33909;-71
2023/06/03 08:09:27;;;;;;;8.07;3.53;;;;;;;22.45;39.22;99782.09;4489131;31;33801;-72
2023/06/03 08:11:56;;;;;;;5.32;3.28;;;;;;;22.81;39.74;99764.87;4495078;32;34156;-71
2023/06/03 08:14:25;;;;;;;5.80;3.17;;;;;;;23.06;39.74;99766.22;4493166;31;31709;-70
2023/06/03 08:16:55;;;;;;;7.97;3.58;;;;;;;22.89;39.20;99765.63;4494036;32;33760;-75
2023/06/03 08:19:23;;;;;;;5.95;3.70;;;;;;;23.22;39.57;99776.03;4489225;32;32683;-71
2023/06/03 08:21:51;;;;;;;4.20;2.45;;;;;;;23.15;39.66;99775.13;4488174;32;33709;-69
2023/06/03 08:24:19;;;;;;;8.77;3.60;;;;;;;23.20;40.06;99775.38;4489187;31;33364;-70
2023/06/03 08:26:47;;;;;;;6.47;2.70;;;;;;;23.14;40.64;99773.44;4488881;32;34718;-69
2023/06/03 08:29:14;;;;;;;9.80;3.65;;;;;;;23.41;39.78;99774.53;4493939;32;34942;-70
2023/06/03 08:31:42;;;;;;;10.30;4.93;;;;;;;23.49;38.16;99774.38;4489779;31;34647;-72
2023/06/03 08:34:10;;;;;;;6.30;3.03;;;;;;;23.45;38.33;99778.53;4493232;32;32118;-71
2023/06/03 08:36:37;;;;;;;8.90;3.58;;;;;;;23.55;38.84;99784.50;4495046;31;33721;-71
2023/06/03 08:39:06;;;;;;;6.45;3.95;;;;;;;23.45;37.44;99784.00;4490909;32;33521;-71
2023/06/03 08:41:40;;;;;;;4.97;3.05;;;;;;;23.60;37.17;99786.66;4490581;32;32670;-71
2023/06/03 08:44:21;;;;;;;5.78;2.45;;;;;;;23.32;37.59;99784.75;4479135;32;33396;-71
2023/06/03 08:47:02;;;;;;;7.62;3.85;;;;;;;23.40;38.08;99787.34;4493531;31;32599;-73
2023/06/03 08:49:44;;;;;;;8.23;4.10;;;;;;;23.56;37.21;99788.91;4481946;32;32802;-72
2023/06/03 08:52:12;;;;;;;6.00;2.90;;;;;;;23.56;36.52;99788.09;4482538;32;33571;-71
2023/06/03 08:54:41;;;;;;;5.82;3.47;;;;;;;22.92;37.40;99794.38;4483086;32;33388;-73
2023/06/03 08:57:11;;;;;;;9.10;3.95;;;;;;;23.11;37.84;99787.47;4494980;31;34844;-73
2023/06/03 08:59:40;;;;;;;7.15;3.67;;;;;;;23.23;37.71;99791.38;4492086;31;34239;-71
2023/06/03 09:02:10;;;;;;;6.87;3.67;;;;;;;23.22;38.47;99787.81;4485508;32;32206;-71
2023/06/03 09:04:38;;;;;;;6.72;3.42;;;;;;;23.56;36.16;99791.66;4479567;32;32777;-70
2023/06/03 09:07:07;;;;;;;5.53;3.97;;;;;;;23.75;35.57;99781.94;4475790;31;33643;-69
2023/06/03 09:09:35;;;;;;;13.45;4.18;;;;;;;23.40;36.18;99790.06;4474268;32;33799;-72
2023/06/03 09:12:03;;;;;;;6.60;3.40;;;;;;;23.38;39.69;99786.69;4472399;32;34185;-71
2023/06/03 09:14:31;;;;;;;4.53;3.00;;;;;;;23.69;37.52;99785.47;4471523;32;32972;-69
2023/06/03 09:16:59;;;;;;;7.05;3.50;;;;;;;23.65;37.91;99797.81;4472039;32;34664;-73
2023/06/03 09:19:27;;;;;;;9.02;3.10;;;;;;;23.76;37.65;99791.88;4479974;32;32640;-70
2023/06/03 09:21:59;;;;;;;6.87;4.28;;;;;;;23.44;37.33;99804.19;4481886;32;34822;-71
2023/06/03 09:24:26;;;;;;;7.62;3.62;;;;;;;23.84;36.71;99799.88;4482753;32;33287;-71
2023/06/03 09:26:54;;;;;;;7.55;3.67;;;;;;;23.92;37.17;99798.91;4477348;32;33502;-69
2023/06/03 09:29:22;;;;;;;6.90;4.30;;;;;;;23.86;36.90;99796.97;4475828;31;33663;-71
2023/06/03 09:31:49;;;;;;;9.45;3.80;;;;;;;24.09;36.52;99803.00;4475540;32;34688;-71
2023/06/03 09:34:17;;;;;;;5.68;3.05;;;;;;;24.11;36.45;99800.09;4481050;32;32177;-71
2023/06/03 09:36:49;;;;;;;9.98;3.62;;;;;;;24.03;35.75;99792.88;4479661;32;33757;-74
2023/06/03 09:39:31;;;;;;;7.47;3.60;;;;;;;23.94;36.69;99794.91;4478104;32;34936;-75
2023/06/03 09:41:59;;;;;;;9.13;3.75;;;;;;;23.86;36.02;99794.25;4477890;32;33481;-73
2023/06/03 09:44:49;;;;;;;7.93;4.37;;;;;;;23.69;36.27;99797.28;4484272;32;31520;-72
2023/06/03 09:47:17;;;;;;;6.60;3.75;;;;;;;23.29;38.31;99796.06;4477134;32;34980;-73
2023/06/03 09:50:04;;;;;;;10.20;3.80;;;;;;;23.19;38.75;99790.09;4481678;32;34711;-72
2023/06/03 09:52:32;;;;;;;10.00;4.35;;;;;;;22.95;40.83;99797.63;4478820;32;33653;-73
2023/06/03 09:55:05;;;;;;;5.82;3.50;;;;;;;23.90;37.96;99795.53;4475690;31;32204;-72
2023/06/03 09:57:37;;;;;;;9.98;2.78;;;;;;;23.96;36.92;99791.16;4473328;31;33920;-73
2023/06/03 10:00:07;;;;;;;7.53;3.58;;;;;;;23.99;36.81;99786.13;4480640;32;34854;-75
2023/06/03 10:02:37;;;;;;;7.62;3.83;;;;;;;24.23;36.16;99795.72;4475321;31;32656;-74
2023/06/03 10:05:28;;;;;;;6.80;3.25;;;;;;;24.34;35.39;99788.84;4472262;32;33321;-73
2023/06/03 10:07:57;;;;;;;5.55;3.62;;;;;;;23.94;36.75;99783.97;4480430;31;34079;-72
2023/06/03 10:10:29;;;;;;;5.55;3.45;;;;;;;24.36;36.31;99787.56;4480531;31;34108;-75
2023/06/03 10:13:03;;;;;;;7.80;3.75;;;;;;;24.55;36.96;99788.75;4482221;32;33106;-73
2023/06/03 10:15:39;;;;;;;6.32;3.60;;;;;;;24.95;35.55;99788.03;4461946;32;33204;-73
2023/06/03 10:18:07;;;;;;;8.75;3.92;;;;;;;25.25;35.51;99786.63;4483633;31;33067;-75
2023/06/03 10:20:39;;;;;;;9.32;3.12;;;;;;;25.26;33.95;99774.63;4475704;32;34261;-73
2023/06/03 10:23:08;;;;;;;8.38;4.30;;;;;;;24.98;34.69;99787.63;4475092;31;34537;-75
2023/06/03 10:25:39;;;;;;;7.57;3.55;;;;;;;25.69;33.81;99784.34;4482527;31;33453;-74
2023/06/03 10:28:07;;;;;;;6.57;3.53;;;;;;;25.65;33.06;99783.91;4481452;32;33184;-74
2023/06/03 10:30:35;;;;;;;7.15;3.50;;;;;;;26.27;31.98;99780.87;4477680;31;32231;-75
2023/06/03 10:33:04;;;;;;;7.05;3.28;;;;;;;26.34;31.30;99785.28;4477572;31;33525;-73
2023/06/03 10:35:32;;;;;;;5.50;3.28;;;;;;;25.94;32.39;99788.13;4477637;31;33333;-75
2023/06/03 10:38:01;;;;;;;5.87;3.50;;;;;;;26.05;32.67;99780.31;4482720;32;34485;-74
2023/06/03 10:40:30;;;;;;;7.32;4.40;;;;;;;26.04;31.88;99790.44;4479469;32;33848;-76
2023/06/03 10:42:57;;;;;;;9.77;3.45;;;;;;;26.14;31.78;99784.50;4481476;31;32780;-71
2023/06/03 10:45:27;;;;;;;5.97;3.60;;;;;;;26.35;32.75;99788.84;4480381;31;34912;-72
2023/06/03 10:48:01;;;;;;;10.38;3.78;;;;;;;26.53;32.00;99783.53;4476673;31;35015;-71
2023/06/03 10:50:34;;;;;;;7.07;2.72;;;;;;;26.15;32.88;99780.69;4480142;32;33794;-72
2023/06/03 10:53:47;;;;;;;6.12;3.15;;;;;;;26.33;32.79;99780.84;4471446;31;33796;-72
2023/06/03 10:56:32;;;;;;;7.85;3.90;;;;;;;26.35;32.45;99781.47;4477530;32;33114;-72
2023/06/03 10:59:04;;;;;;;8.00;3.85;;;;;;;26.06;32.76;99777.31;4477228;32;33636;-73
2023/06/03 11:02:03;;;;;;;6.97;3.20;;;;;;;25.99;32.96;99782.00;4481414;31;35034;-71
2023/06/03 11:04:33;;;;;;;20.95;3.53;;;;;;;26.25;33.88;99781.91;4478007;31;33099;-71
2023/06/03 11:07:02;;;;;;;7.82;3.00;;;;;;;25.62;32.63;99781.59;4473403;31;34862;-71
2023/06/03 11:09:35;;;;;;;7.62;3.70;;;;;;;25.79;32.52;99779.25;4481899;31;34517;-69
2023/06/03 11:12:06;;;;;;;5.90;2.83;;;;;;;25.99;32.99;99787.47;4479234;31;34045;-70
2023/06/03 11:14:40;;;;;;;6.20;3.42;;;;;;;26.35;31.97;99775.13;4483551;31;34412;-69
2023/06/03 11:17:10;;;;;;;15.70;2.92;;;;;;;26.71;30.01;99775.44;4474131;31;33188;-70
2023/06/03 11:19:44;;;;;;;10.82;3.55;;;;;;;26.83;30.73;99766.50;4478754;32;32723;-70
2023/06/03 11:22:14;;;;;;;4.70;2.67;;;;;;;26.97;30.64;99770.84;4481799;31;34447;-70
2023/06/03 11:24:50;;;;;;;4.78;2.80;;;;;;;26.70;31.50;99770.16;4478220;32;34579;-70
2023/06/03 11:27:21;;;;;;;8.77;3.53;;;;;;;26.56;30.24;99768.53;4482597;32;33305;-70
2023/06/03 11:29:51;;;;;;;5.45;3.00;;;;;;;26.90;30.43;99767.28;4468074;32;33048;-70
2023/06/03 11:32:32;;;;;;;6.35;2.55;;;;;;;26.85;30.28;99767.97;4478439;31;33841;-70
2023/06/03 11:35:03;;;;;;;6.35;2.85;;;;;;;27.09;29.91;99768.22;4478402;32;33706;-70
2023/06/03 11:37:41;;;;;;;6.57;2.65;;;;;;;26.66;30.26;99774.41;4475783;31;34463;-70
2023/06/03 11:40:17;;;;;;;8.95;3.37;;;;;;;26.63;30.43;99772.94;4478804;31;34327;-70
2023/06/03 11:42:46;;;;;;;4.57;2.42;;;;;;;26.24;30.42;99772.00;4477403;31;35223;-68
2023/06/03 11:45:21;;;;;;;7.82;2.53;;;;;;;26.03;30.93;99766.78;4477915;31;34280;-72
2023/06/03 11:47:52;;;;;;;4.93;3.05;;;;;;;26.29;30.55;99767.75;4474283;31;33140;-69